Time;durP1;ratioP1;P1;durP2;ratioP2;P2;SDS_P1;SDS_P2;PMS_P1;PMS_P2;Temp;Humidity;BMP_temperature;BMP_pressure;BME280_temperature;BME280_humidity;BME280_pressure;Samples;Min_cycle;Max_cycle;Signal;HPM_P1;HPM_P2
2022/08/19 00:00:18;;;;;;;;;22.33;22.00;;;;;21.15;64.07;100950.16;5082071;27;45874;-64
2022/08/19 00:02:45;;;;;;;;;18.67;18.33;;;;;21.17;64.09;100950.00;5100625;27;45241;-63
2022/08/19 00:05:12;;;;;;;;;23.00;18.67;;;;;21.19;64.14;100953.41;5099817;27;45301;-65
2022/08/19 00:07:37;;;;;;;;;23.00;21.00;;;;;21.15;64.26;100947.47;5099920;27;46216;-64
2022/08/19 00:10:05;;;;;;;;;22.33;19.00;;;;;21.19;63.88;100951.56;5100154;27;45405;-62
2022/08/19 00:12:31;;;;;;;;;20.67;19.33;;;;;21.20;64.27;100945.16;5100181;27;45377;-66
2022/08/19 00:14:56;;;;;;;;;21.33;17.00;;;;;21.23;63.88;100945.88;5082197;27;45489;-63
2022/08/19 00:17:22;;;;;;;;;19.00;19.00;;;;;21.21;63.93;100944.16;5100191;27;45329;-62
2022/08/19 00:19:48;;;;;;;;;16.00;16.00;;;;;21.21;63.81;100954.97;5081447;27;45465;-62
2022/08/19 00:22:14;;;;;;;;;18.33;18.33;;;;;21.17;63.78;100952.72;5099996;27;45223;-63
2022/08/19 00:24:40;;;;;;;;;20.67;17.33;;;;;21.21;63.78;100965.78;5099805;27;45429;-63
2022/08/19 00:27:06;;;;;;;;;14.67;13.00;;;;;21.16;63.90;100959.97;5099676;27;47203;-62
2022/08/19 00:29:31;;;;;;;;;18.67;16.00;;;;;21.14;63.75;100953.88;5099586;27;45442;-63
2022/08/19 00:31:59;;;;;;;;;18.67;18.33;;;;;21.14;63.91;100953.88;5099755;27;45376;-64
2022/08/19 00:34:26;;;;;;;;;16.33;16.00;;;;;21.09;63.58;100950.72;5099945;27;45377;-64
2022/08/19 00:36:52;;;;;;;;;21.67;18.00;;;;;21.09;63.56;100955.28;5099478;27;47263;-64
2022/08/19 00:39:18;;;;;;;;;17.00;16.00;;;;;21.08;63.43;100956.28;5098869;27;45333;-65
2022/08/19 00:41:47;;;;;;;;;17.33;16.33;;;;;21.06;63.71;100961.84;5098405;27;45304;-65
2022/08/19 00:44:15;;;;;;;;;23.33;18.00;;;;;21.09;63.49;100964.25;5099955;27;45322;-63
2022/08/19 00:46:44;;;;;;;;;19.67;19.67;;;;;21.02;63.96;100960.44;5098277;27;45386;-63
2022/08/19 00:49:19;;;;;;;;;17.33;15.67;;;;;21.03;63.89;100959.44;5098967;27;45245;-65
2022/08/19 00:51:48;;;;;;;;;21.67;18.00;;;;;20.98;63.75;100952.75;5098184;27;45311;-64
2022/08/19 00:54:14;;;;;;;;;18.33;18.00;;;;;20.88;63.42;100944.66;5099559;27;45353;-63
2022/08/19 00:56:41;;;;;;;;;14.00;14.00;;;;;20.79;63.66;100943.66;5099193;27;45432;-64
2022/08/19 00:59:08;;;;;;;;;15.33;14.67;;;;;20.81;63.79;100952.47;5099072;27;45382;-62
2022/08/19 01:01:39;;;;;;;;;18.33;15.00;;;;;20.77;63.94;100950.22;5099259;27;45370;-64
2022/08/19 01:04:04;;;;;;;;;17.67;16.00;;;;;20.76;63.99;100948.50;5099320;27;45499;-65
2022/08/19 01:06:32;;;;;;;;;18.33;15.67;;;;;20.78;64.17;100951.91;5098283;27;45992;-64
2022/08/19 01:08:59;;;;;;;;;17.67;13.67;;;;;20.82;64.43;100950.63;5080670;27;45246;-65
2022/08/19 01:11:25;;;;;;;;;12.67;12.67;;;;;20.82;63.86;100954.19;5099057;27;45193;-64
2022/08/19 01:13:53;;;;;;;;;17.00;14.00;;;;;20.80;63.85;100942.66;5099686;27;45537;-63
2022/08/19 01:16:21;;;;;;;;;16.00;14.33;;;;;20.80;63.85;100949.91;5099013;27;46209;-62
2022/08/19 01:18:48;;;;;;;;;15.00;15.00;;;;;20.77;64.22;100945.66;5098890;27;45361;-62
2022/08/19 01:21:25;;;;;;;;;14.00;14.00;;;;;20.78;63.90;100950.06;5098875;27;45254;-61
2022/08/19 01:23:51;;;;;;;;;17.67;17.00;;;;;20.76;63.58;100948.50;5099207;27;45339;-64
2022/08/19 01:26:20;;;;;;;;;16.00;14.00;;;;;20.76;63.72;100954.75;5098379;27;45403;-68
2022/08/19 01:28:48;;;;;;;;;15.00;15.00;;;;;20.77;63.58;100956.47;5069258;27;45362;-61
2022/08/19 01:31:21;;;;;;;;;12.00;12.00;;;;;20.75;63.89;100950.34;5098930;27;45322;-63
2022/08/19 01:33:48;;;;;;;;;18.00;15.33;;;;;20.71;63.62;100961.59;5098887;27;45274;-63
2022/08/19 01:36:25;;;;;;;;;21.00;14.33;;;;;20.58;63.94;100962.75;5098490;27;45272;-64
2022/08/19 01:38:50;;;;;;;;;12.33;12.33;;;;;20.50;64.16;100957.19;5098933;27;45242;-64
2022/08/19 01:41:17;;;;;;;;;17.67;16.00;;;;;20.44;64.64;100960.41;5098614;27;45337;-63
2022/08/19 01:43:43;;;;;;;;;13.00;13.00;;;;;20.50;64.24;100970.69;5098836;27;45376;-63
2022/08/19 01:46:09;;;;;;;;;14.67;14.33;;;;;20.52;64.28;100968.69;5098402;27;46149;-62
2022/08/19 01:48:40;;;;;;;;;13.33;12.33;;;;;20.50;64.10;100965.28;5098531;27;45251;-64
2022/08/19 01:51:07;;;;;;;;;15.00;14.67;;;;;20.51;64.42;100966.97;5097071;27;45310;-62
2022/08/19 01:53:34;;;;;;;;;15.00;12.00;;;;;20.44;64.25;100957.72;5098532;27;45539;-62
2022/08/19 01:56:00;;;;;;;;;15.33;13.00;;;;;20.50;64.09;100973.38;5098062;27;46476;-62
2022/08/19 01:58:38;;;;;;;;;11.67;11.67;;;;;20.41;64.38;100970.63;5097977;27;45542;-62
2022/08/19 02:01:04;;;;;;;;;13.00;11.33;;;;;20.39;64.80;100973.47;5080734;27;45362;-64
2022/08/19 02:03:30;;;;;;;;;11.33;11.33;;;;;20.39;64.65;100968.06;5098687;27;45526;-61
2022/08/19 02:06:02;;;;;;;;;16.00;14.33;;;;;20.33;64.86;100972.19;5098445;27;45644;-62
2022/08/19 02:08:29;;;;;;;;;13.00;9.00;;;;;20.24;64.73;100958.66;5098137;27;45299;-62
2022/08/19 02:10:56;;;;;;;;;13.67;13.67;;;;;20.26;64.96;100962.09;5098315;27;45253;-62
2022/08/19 02:13:27;;;;;;;;;13.33;13.33;;;;;20.23;64.92;100962.38;5098451;27;45569;-62
2022/08/19 02:15:52;;;;;;;;;12.67;12.67;;;;;20.30;65.53;100966.19;5098487;27;45433;-61
2022/08/19 02:18:18;;;;;;;;;16.00;15.00;;;;;20.29;65.18;100961.78;5096700;27;45291;-63
2022/08/19 02:20:46;;;;;;;;;13.67;12.00;;;;;20.18;64.90;100952.00;5098192;27;45441;-63
2022/08/19 02:23:12;;;;;;;;;18.00;16.00;;;;;20.21;65.40;100967.06;5098410;27;45389;-63
2022/08/19 02:25:39;;;;;;;;;13.67;13.67;;;;;20.21;65.35;100964.34;5097653;27;45432;-64
2022/08/19 02:28:05;;;;;;;;;23.00;17.00;;;;;20.21;65.48;100975.16;5097633;27;45366;-61
2022/08/19 02:30:30;;;;;;;;;14.67;14.67;;;;;20.19;65.68;100974.44;5098262;27;45295;-62
2022/08/19 02:32:56;;;;;;;;;15.33;14.00;;;;;20.16;65.66;100978.25;5098405;27;45825;-65
2022/08/19 02:35:22;;;;;;;;;13.67;13.67;;;;;20.14;65.68;100969.44;5097816;27;45553;-64
2022/08/19 02:40:34;;;;;;;;;11.00;10.00;;;;;20.25;65.83;100976.56;5097721;27;45415;-62
2022/08/19 02:43:02;;;;;;;;;17.00;17.00;;;;;20.19;65.65;100956.41;5097908;27;45370;-61
2022/08/19 02:45:31;;;;;;;;;22.33;17.67;;;;;20.30;65.79;100974.31;5097590;27;45981;-63
2022/08/19 02:47:57;;;;;;;;;18.00;17.00;;;;;20.36;65.64;100979.16;5097811;27;45532;-63
2022/08/19 02:50:22;;;;;;;;;14.00;13.00;;;;;20.38;65.48;100977.16;5096989;27;45403;-62
2022/08/19 02:52:47;;;;;;;;;13.67;13.33;;;;;20.41;66.01;100967.94;5097885;27;45587;-61
2022/08/19 02:55:13;;;;;;;;;8.67;8.67;;;;;20.43;65.45;100960.56;5097485;27;45316;-62
2022/08/19 02:57:38;;;;;;;;;19.00;14.00;;;;;20.46;65.54;100961.16;5096276;27;45431;-62
2022/08/19 03:00:06;;;;;;;;;14.00;14.00;;;;;20.46;65.02;100963.88;5079344;27;45657;-60
2022/08/19 03:02:32;;;;;;;;;21.00;12.67;;;;;20.48;65.39;100972.69;5097402;27;45427;-61
2022/08/19 03:04:57;;;;;;;;;16.67;16.00;;;;;20.46;65.28;100963.00;5078380;27;46560;-64
2022/08/19 03:07:22;;;;;;;;;18.67;14.33;;;;;20.42;65.71;100967.81;5096888;27;45345;-62
2022/08/19 03:09:48;;;;;;;;;14.67;14.67;;;;;20.39;65.96;100972.63;5097333;27;45467;-63
2022/08/19 03:12:13;;;;;;;;;16.00;14.33;;;;;20.39;65.89;100973.47;5097421;27;45437;-62
2022/08/19 03:14:39;;;;;;;;;14.33;14.33;;;;;20.37;65.95;100970.06;5078638;27;47998;-62
2022/08/19 03:17:04;;;;;;;;;19.00;15.67;;;;;20.35;66.16;100972.06;5079112;27;45369;-62
2022/08/19 03:19:31;;;;;;;;;18.33;15.00;;;;;20.35;66.48;100972.06;5097382;27;45304;-62
2022/08/19 03:21:56;;;;;;;;;15.33;13.33;;;;;20.29;66.55;100957.25;5097543;27;45545;-62
2022/08/19 03:24:22;;;;;;;;;16.00;16.00;;;;;20.30;66.68;100955.41;5096856;27;46076;-64
2022/08/19 03:26:50;;;;;;;;;13.00;13.00;;;;;20.35;66.76;100972.06;5092734;27;45271;-65
2022/08/19 03:29:18;;;;;;;;;12.33;12.33;;;;;20.30;66.96;100963.50;5088610;27;46851;-62
2022/08/19 03:31:44;;;;;;;;;16.67;15.00;;;;;20.25;67.20;100957.69;5096981;27;45345;-61
2022/08/19 03:34:12;;;;;;;;;19.67;13.67;;;;;20.20;67.04;100960.81;5096539;27;46329;-63
2022/08/19 03:36:38;;;;;;;;;13.33;13.33;;;;;20.21;67.28;100959.81;5097088;27;45254;-63
2022/08/19 03:39:04;;;;;;;;;16.67;15.33;;;;;20.23;66.99;100957.81;5096951;27;45241;-64
2022/08/19 03:41:36;;;;;;;;;21.33;16.00;;;;;20.18;67.04;100949.28;5097345;27;45683;-64
2022/08/19 03:44:01;;;;;;;;;14.00;14.00;;;;;20.24;67.13;100961.38;5096749;27;45451;-63
2022/08/19 03:46:29;;;;;;;;;14.00;14.00;;;;;20.23;67.32;100957.81;5077950;27;45444;-63
2022/08/19 03:48:57;;;;;;;;;10.00;10.00;;;;;20.25;67.11;100960.38;5096600;27;45281;-61
2022/08/19 03:51:25;;;;;;;;;15.00;13.00;;;;;20.25;66.86;100961.22;5096519;27;45543;-63
2022/08/19 03:53:53;;;;;;;;;10.33;8.67;;;;;20.22;66.93;100960.66;5096341;27;45338;-61
2022/08/19 03:56:19;;;;;;;;;11.33;11.33;;;;;20.14;66.81;100957.78;5096608;27;45255;-62
2022/08/19 03:58:44;;;;;;;;;10.33;10.33;;;;;20.15;67.24;100967.59;5096749;27;45362;-64
2022/08/19 04:01:13;;;;;;;;;11.67;9.33;;;;;20.13;67.30;100966.88;5097560;27;45290;-63
2022/08/19 04:03:39;;;;;;;;;14.33;14.33;;;;;20.13;67.19;100969.59;5097219;27;46181;-64
2022/08/19 04:06:13;;;;;;;;;9.67;9.67;;;;;20.11;67.57;100958.94;5096332;27;45314;-64
2022/08/19 04:08:40;;;;;;;;;11.33;10.33;;;;;20.20;67.58;100973.44;5096567;27;45424;-62
2022/08/19 04:11:11;;;;;;;;;11.00;10.00;;;;;20.21;67.44;100962.50;5096978;27;45345;-64
2022/08/19 04:13:38;;;;;;;;;13.33;11.67;;;;;20.19;67.56;100952.84;5096586;27;45923;-62
2022/08/19 04:16:05;;;;;;;;;11.67;9.67;;;;;20.16;67.19;100959.34;5096128;27;45406;-61
2022/08/19 04:18:31;;;;;;;;;11.67;9.33;;;;;20.16;67.21;100955.81;5078191;27;45473;-62
2022/08/19 04:20:56;;;;;;;;;11.67;10.33;;;;;20.14;67.28;100955.94;5096229;27;45687;-62
2022/08/19 04:23:22;;;;;;;;;10.00;10.00;;;;;20.02;67.21;100949.78;5096118;27;45466;-61
2022/08/19 04:25:48;;;;;;;;;9.67;9.00;;;;;20.13;67.21;100965.03;5096119;27;45255;-60
2022/08/19 04:28:14;;;;;;;;;9.00;9.00;;;;;20.14;67.17;100968.59;5079484;27;45375;-61
2022/08/19 04:30:42;;;;;;;;;11.00;9.00;;;;;20.13;67.13;100966.88;5075648;27;45214;-61
2022/08/19 04:33:09;;;;;;;;;8.00;8.00;;;;;20.12;67.25;100966.03;5075462;27;46106;-61
2022/08/19 04:35:43;;;;;;;;;8.00;8.00;;;;;20.10;67.34;100970.72;5091158;27;45396;-63
2022/08/19 04:38:09;;;;;;;;;7.00;6.33;;;;;20.10;67.18;100967.16;5075776;27;45413;-63
2022/08/19 04:43:27;;;;;;;;;8.00;8.00;;;;;20.11;67.66;100968.88;5078953;28;45235;-61
2022/08/19 04:45:53;;;;;;;;;8.00;8.00;;;;;20.09;67.60;100973.56;5076946;28;45475;-60
2022/08/19 04:48:25;;;;;;;;;10.67;8.00;;;;;20.12;67.52;100970.56;5079364;27;45839;-62
2022/08/19 04:50:57;;;;;;;;;6.67;6.67;;;;;20.17;67.51;100987.22;5078953;28;45434;-62
2022/08/19 04:53:24;;;;;;;;;6.33;6.33;;;;;20.04;67.50;100969.41;5077314;28;46147;-62
2022/08/19 04:55:51;;;;;;;;;7.00;7.00;;;;;20.17;67.83;100998.00;5078726;27;45319;-60
2022/08/19 04:58:17;;;;;;;;;6.67;5.33;;;;;20.20;67.80;100995.06;5079067;27;45274;-62
2022/08/19 05:00:43;;;;;;;;;5.00;5.00;;;;;20.16;67.92;100982.81;5078859;27;45410;-61
2022/08/19 05:03:09;;;;;;;;;6.00;6.00;;;;;20.21;67.82;100991.38;5077352;28;45398;-61
2022/08/19 05:05:39;;;;;;;;;6.67;6.67;;;;;20.24;67.65;101004.59;5079199;27;45323;-64
2022/08/19 05:08:05;;;;;;;;;5.33;5.33;;;;;20.22;67.40;100998.47;5079210;27;45360;-62
2022/08/19 05:10:31;;;;;;;;;5.33;5.00;;;;;20.11;67.41;100982.38;5079359;28;45373;-62
2022/08/19 05:12:57;;;;;;;;;5.00;5.00;;;;;20.15;67.46;100994.59;5060260;28;48543;-60
2022/08/19 05:15:22;;;;;;;;;5.00;5.00;;;;;20.27;67.43;101007.00;5078474;28;45457;-64
2022/08/19 05:22:32;;;;;;;;;6.00;6.00;;;;;20.30;67.35;101004.88;5078442;28;45428;-60
2022/08/19 05:23:17;;;;;;;;;9.00;4.00;;;;;20.26;67.34;100994.50;5077246;27;45464;-64
2022/08/19 05:25:44;;;;;;;;;5.67;4.00;;;;;20.27;67.51;101001.59;5078510;27;45419;-63
2022/08/19 05:28:09;;;;;;;;;5.00;5.00;;;;;20.34;67.34;101008.16;5093186;27;45498;-63
2022/08/19 05:30:35;;;;;;;;;6.00;6.00;;;;;20.34;67.19;101005.47;5080945;27;45335;-62
2022/08/19 05:33:00;;;;;;;;;4.67;4.00;;;;;20.38;67.36;101015.00;5080530;27;47104;-62
2022/08/19 05:35:25;;;;;;;;;6.67;5.33;;;;;20.39;67.15;101022.09;5098737;27;45318;-61
2022/08/19 05:37:54;;;;;;;;;4.00;4.00;;;;;20.43;67.43;101014.59;5098734;27;45371;-62
2022/08/19 05:40:19;;;;;;;;;7.00;5.00;;;;;20.45;67.01;101015.34;5063960;27;45392;-63
2022/08/19 05:42:45;;;;;;;;;4.00;4.00;;;;;20.41;67.26;101012.00;5080045;27;46478;-62
2022/08/19 05:45:11;;;;;;;;;7.67;5.00;;;;;20.36;67.49;101008.88;5098324;27;45354;-63
2022/08/19 05:47:37;;;;;;;;;7.33;7.00;;;;;20.38;67.56;101008.75;5098561;27;45338;-62
2022/08/19 05:50:03;;;;;;;;;4.00;4.00;;;;;20.45;67.64;101010.78;5099198;27;45767;-64
2022/08/19 05:52:29;;;;;;;;;5.25;4.50;;;;;20.44;67.63;101005.50;5098346;27;47134;-62
2022/08/19 05:54:55;;;;;;;;;6.00;5.50;;;;;20.47;67.52;101005.25;5098404;27;45473;-62
2022/08/19 05:57:21;;;;;;;;;6.33;4.00;;;;;20.48;67.93;101005.09;5098826;27;45511;-64
2022/08/19 05:59:48;;;;;;;;;5.33;5.33;;;;;20.47;67.71;101008.78;5098704;27;45704;-62
2022/08/19 06:02:13;;;;;;;;;5.67;5.67;;;;;20.45;68.36;101008.09;5080156;27;45954;-63
2022/08/19 06:04:42;;;;;;;;;7.67;6.67;;;;;20.38;67.95;101009.59;5098380;27;45361;-62
2022/08/19 06:07:08;;;;;;;;;6.33;6.33;;;;;20.41;68.04;101025.50;5097723;27;45451;-60
2022/08/19 06:09:33;;;;;;;;;7.67;7.67;;;;;20.43;68.08;101028.09;5098370;27;45428;-64
2022/08/19 06:11:59;;;;;;;;;4.00;3.00;;;;;20.43;68.00;101023.56;5098042;27;46448;-62
2022/08/19 06:14:28;;;;;;;;;4.00;4.00;;;;;20.40;68.33;101021.09;5097697;27;45338;-65
2022/08/19 06:16:54;;;;;;;;;6.50;5.25;;;;;20.41;68.29;101030.06;5098145;27;45249;-61
2022/08/19 06:19:24;;;;;;;;;3.33;3.00;;;;;20.42;68.27;101024.56;5079702;27;45574;-60
2022/08/19 06:21:50;;;;;;;;;3.00;3.00;;;;;20.43;68.49;101034.38;5096734;27;45357;-59
2022/08/19 06:24:19;;;;;;;;;4.67;4.67;;;;;20.51;68.31;101033.69;5097862;27;45334;-59
2022/08/19 06:26:47;;;;;;;;;6.00;6.00;;;;;20.49;68.33;101041.94;5094526;27;45764;-61
2022/08/19 06:29:14;;;;;;;;;4.00;4.00;;;;;20.52;68.41;101044.34;5077738;28;45363;-58
2022/08/19 06:31:46;;;;;;;;;3.00;3.00;;;;;20.52;68.24;101048.91;5077982;27;46286;-59
2022/08/19 06:34:13;;;;;;;;;5.33;5.33;;;;;20.54;68.23;101042.34;5077290;28;45393;-60
2022/08/19 06:36:43;;;;;;;;;5.00;4.67;;;;;20.52;68.55;101038.94;5076380;27;45444;-58
2022/08/19 06:39:12;;;;;;;;;3.00;3.00;;;;;20.54;68.34;101042.34;5077874;27;45381;-59
2022/08/19 06:41:40;;;;;;;;;4.00;4.00;;;;;20.58;68.31;101054.63;5093238;27;47380;-60
2022/08/19 06:44:07;;;;;;;;;4.00;4.00;;;;;20.58;68.21;101054.63;5077383;27;45321;-59
2022/08/19 06:46:33;;;;;;;;;3.00;3.00;;;;;20.53;68.68;101056.84;5077060;27;45342;-60
2022/08/19 06:48:58;;;;;;;;;3.00;3.00;;;;;20.55;68.48;101054.88;5077184;27;45369;-59
2022/08/19 06:51:25;;;;;;;;;3.00;3.00;;;;;20.53;68.45;101056.00;5076688;27;45278;-59
2022/08/19 06:53:54;;;;;;;;;3.00;3.00;;;;;20.49;68.55;101044.63;5076889;27;45251;-59
2022/08/19 06:56:24;;;;;;;;;2.00;2.00;;;;;20.57;68.48;101046.63;5077307;27;45378;-58
2022/08/19 06:58:52;;;;;;;;;4.00;4.00;;;;;20.61;68.51;101038.13;5076953;27;45247;-59
2022/08/19 07:01:18;;;;;;;;;3.00;3.00;;;;;20.73;68.30;101046.09;5075325;28;46105;-59
2022/08/19 07:03:44;;;;;;;;;1.00;1.00;;;;;20.72;68.45;101047.94;5074714;28;45359;-60
2022/08/19 07:06:15;;;;;;;;;3.00;3.00;;;;;20.80;68.26;101053.50;5076927;28;45542;-60
2022/08/19 07:08:42;;;;;;;;;5.50;3.00;;;;;20.92;67.94;101057.78;5077604;27;45248;-59
2022/08/19 07:11:10;;;;;;;;;4.67;3.00;;;;;20.95;67.40;101045.81;5076902;28;45514;-59
2022/08/19 07:13:37;;;;;;;;;5.00;4.00;;;;;20.89;67.39;101057.22;5077865;27;45416;-60
2022/08/19 07:16:14;;;;;;;;;3.67;3.00;;;;;20.86;67.74;101066.47;5077295;27;45433;-61
2022/08/19 07:18:40;;;;;;;;;4.00;2.75;;;;;20.74;67.93;101069.44;5077299;28;45173;-59
2022/08/19 07:21:18;;;;;;;;;5.00;3.67;;;;;20.70;68.11;101070.69;5076077;27;45271;-62
2022/08/19 07:23:45;;;;;;;;;9.67;8.00;;;;;20.73;68.46;101073.13;5076459;27;45416;-65
2022/08/19 07:26:23;;;;;;;;;3.00;2.00;;;;;20.78;68.17;101065.44;5076952;27;45443;-62
2022/08/19 07:28:49;;;;;;;;;3.00;3.00;;;;;20.83;68.04;101068.56;5096354;27;45342;-62
2022/08/19 07:31:18;;;;;;;;;2.00;2.00;;;;;20.78;68.14;101066.28;5096879;27;45351;-58
2022/08/19 07:33:45;;;;;;;;;3.67;3.67;;;;;20.82;68.23;101069.56;5096988;27;45464;-62
2022/08/19 07:36:16;;;;;;;;;4.00;4.00;;;;;20.78;68.40;101060.03;5079119;27;45338;-57
2022/08/19 07:38:45;;;;;;;;;4.50;2.50;;;;;20.84;68.34;101070.31;5098008;27;45269;-62
2022/08/19 07:41:13;;;;;;;;;2.00;2.00;;;;;20.85;68.21;101062.03;5078714;27;47878;-65
2022/08/19 07:43:40;;;;;;;;;3.00;3.00;;;;;20.88;68.54;101063.63;5096680;27;45331;-64
2022/08/19 07:46:06;;;;;;;;;1.67;1.67;;;;;20.88;68.11;101066.31;5097529;27;45165;-60
2022/08/19 07:48:32;;;;;;;;;3.00;3.00;;;;;20.87;68.21;101056.50;5097663;27;45663;-61
2022/08/19 07:51:02;;;;;;;;;2.25;1.50;;;;;20.87;68.40;101065.47;5095045;27;46255;-64
2022/08/19 07:53:30;;;;;;;;;2.25;2.25;;;;;20.90;68.52;101064.31;5096530;27;45370;-63
2022/08/19 07:56:03;;;;;;;;;2.00;2.00;;;;;20.95;68.34;101061.19;5096725;27;45293;-62
2022/08/19 07:58:34;;;;;;;;;3.00;3.00;;;;;20.97;68.17;101060.06;5096977;27;45508;-64
2022/08/19 08:01:00;;;;;;;;;1.00;1.00;;;;;20.98;68.30;101061.78;5096098;27;45413;-62
2022/08/19 08:09:15;;;;;;;;;2.00;2.00;;;;;21.17;67.66;101064.47;5096787;27;45348;-62
2022/08/19 08:11:49;;;;;;;;;5.00;4.00;;;;;21.20;67.05;101071.44;5096295;27;46594;-63
2022/08/19 08:14:30;;;;;;;;;2.00;2.00;;;;;21.21;67.44;101060.47;5096439;27;45422;-65
2022/08/19 08:16:56;;;;;;;;;2.00;2.00;;;;;21.24;67.03;101066.63;5098515;27;45373;-62
2022/08/19 08:19:24;;;;;;;;;2.50;2.50;;;;;21.28;67.01;101070.75;5099372;27;45507;-59
2022/08/19 08:21:51;;;;;;;;;5.67;2.67;;;;;21.36;67.31;101073.63;5099717;27;45424;-60
2022/08/19 08:24:17;;;;;;;;;3.00;3.00;;;;;21.39;67.11;101073.31;5079237;27;45508;-61
2022/08/19 08:26:43;;;;;;;;;2.75;2.75;;;;;21.48;66.95;101075.13;5099184;27;45540;-63
2022/08/19 08:29:11;;;;;;;;;2.75;2.75;;;;;21.53;66.23;101078.28;5099970;27;45271;-64
2022/08/19 08:31:37;;;;;;;;;2.00;2.00;;;;;21.56;66.56;101080.69;5099618;27;47324;-62
2022/08/19 08:34:02;;;;;;;;;3.50;2.00;;;;;21.52;65.91;101079.28;5099653;27;45732;-66
2022/08/19 08:36:28;;;;;;;;;2.50;2.50;;;;;21.44;66.39;101079.13;5099984;27;45475;-64
2022/08/19 08:38:54;;;;;;;;;3.00;1.25;;;;;21.47;66.51;101079.69;5100227;27;45603;-62
2022/08/19 08:41:27;;;;;;;;;3.25;2.00;;;;;21.49;66.45;101083.13;5099433;27;46260;-60
2022/08/19 08:43:55;;;;;;;;;4.75;3.00;;;;;21.55;66.81;101078.13;5099435;27;45323;-60
2022/08/19 08:46:52;;;;;;;;;2.75;1.25;;;;;21.61;66.07;101078.38;5099421;27;45394;-59
2022/08/19 08:49:45;;;;;;;;;1.50;1.50;;;;;21.64;66.48;101082.69;5078845;27;45281;-59
2022/08/19 08:52:18;;;;;;;;;1.00;1.00;;;;;21.65;66.27;101074.41;5099420;27;45490;-61
2022/08/19 08:54:47;;;;;;;;;1.50;1.00;;;;;21.69;65.59;101086.66;5100354;27;45449;-59
2022/08/19 08:57:23;;;;;;;;;2.00;2.00;;;;;21.62;66.18;101081.97;5100072;27;45475;-63
2022/08/19 08:59:53;;;;;;;;;2.50;2.50;;;;;21.65;65.88;101085.25;5099694;27;45416;-59
2022/08/19 09:02:19;;;;;;;;;2.00;2.00;;;;;21.68;66.06;101082.25;5099054;27;45772;-58
2022/08/19 09:04:45;;;;;;;;;1.25;1.25;;;;;21.71;66.11;101076.53;5099563;27;45439;-62
2022/08/19 09:07:47;;;;;;;;;2.25;1.00;;;;;21.74;65.70;101078.94;5099785;27;45425;-60
2022/08/19 09:10:21;;;;;;;;;1.00;1.00;;;;;21.82;65.55;101080.06;5079099;27;45649;-59
2022/08/19 09:13:14;;;;;;;;;1.25;1.25;;;;;21.91;65.62;101090.03;5099231;27;46275;-62
2022/08/19 09:15:47;;;;;;;;;1.00;1.00;;;;;21.93;65.72;101085.31;5098659;27;44754;-62
2022/08/19 09:18:15;;;;;;;;;2.00;2.00;;;;;21.97;65.03;101081.28;5098914;27;45322;-59
2022/08/19 09:20:40;;;;;;;;;1.00;1.00;;;;;22.00;64.79;101075.56;5099090;27;45349;-62
2022/08/19 09:23:05;;;;;;;;;1.00;1.00;;;;;22.02;64.71;101079.88;5098900;27;45377;-61
2022/08/19 09:25:32;;;;;;;;;1.25;1.00;;;;;22.06;64.83;101070.47;5098993;27;45356;-63
2022/08/19 09:28:02;;;;;;;;;1.00;1.00;;;;;22.13;65.09;101076.13;5098085;27;45460;-62
2022/08/19 09:30:30;;;;;;;;;1.25;1.25;;;;;22.22;64.35;101075.25;5098818;27;45350;-61
2022/08/19 09:32:56;;;;;;;;;2.25;2.25;;;;;22.25;64.38;101066.81;5080223;27;45380;-59
2022/08/19 09:35:24;;;;;;;;;3.00;1.25;;;;;22.31;64.03;101085.19;5098694;27;45302;-60
2022/08/19 09:37:51;;;;;;;;;1.25;1.25;;;;;22.35;64.54;101075.75;5099026;27;45420;-63
2022/08/19 09:40:17;;;;;;;;;2.00;2.00;;;;;22.45;64.02;101072.16;5099379;27;45356;-60
2022/08/19 09:42:46;;;;;;;;;2.00;2.00;;;;;22.57;63.59;101070.94;5098347;27;46675;-61
2022/08/19 09:45:12;;;;;;;;;2.25;2.00;;;;;22.67;63.04;101075.31;5098230;27;45424;-60
2022/08/19 09:47:38;;;;;;;;;1.75;1.75;;;;;22.75;63.16;101069.09;5098577;27;45391;-58
2022/08/19 09:50:06;;;;;;;;;1.75;1.75;;;;;22.86;62.42;101068.06;5097277;27;45370;-60
2022/08/19 09:52:32;;;;;;;;;3.00;3.00;;;;;23.04;61.90;101070.75;5079891;27;45428;-58
2022/08/19 09:54:57;;;;;;;;;2.00;2.00;;;;;23.12;61.37;101071.72;5098304;27;45359;-61
2022/08/19 09:57:23;;;;;;;;;3.50;2.00;;;;;23.18;62.33;101072.97;5098245;27;45278;-62
2022/08/19 09:59:48;;;;;;;;;2.00;2.00;;;;;23.21;61.44;101072.63;5098950;27;45212;-60
2022/08/19 10:02:13;;;;;;;;;2.00;2.00;;;;;23.29;61.66;101075.41;5097750;27;46187;-58
2022/08/19 10:07:24;;;;;;;;;1.40;1.40;;;;;23.47;60.66;101073.53;5098414;27;45296;-62
2022/08/19 10:09:49;;;;;;;;;2.00;2.00;;;;;23.53;60.62;101062.03;5098557;27;45571;-57
2022/08/19 10:12:15;;;;;;;;;1.25;1.25;;;;;23.54;60.59;101069.16;5097903;27;46025;-60
2022/08/19 10:14:42;;;;;;;;;1.25;1.00;;;;;23.49;60.65;101060.66;5098266;27;45256;-60
2022/08/19 10:17:07;;;;;;;;;1.00;1.00;;;;;23.46;59.71;101069.13;5079823;27;45700;-60
2022/08/19 10:19:35;;;;;;;;;1.00;1.00;;;;;23.45;60.68;101055.72;5098119;27;45548;-59
2022/08/19 10:22:06;;;;;;;;;1.00;1.00;;;;;23.53;61.08;101067.47;5097595;27;46510;-59
2022/08/19 10:24:33;;;;;;;;;1.20;1.20;;;;;23.51;61.35;101045.06;5078437;27;45239;-58
2022/08/19 10:26:59;;;;;;;;;0.40;0.00;;;;;23.63;60.24;101067.41;5097951;27;45275;-58
2022/08/19 10:29:25;;;;;;;;;2.00;2.00;;;;;23.71;59.73;101059.31;5097936;27;45330;-62
2022/08/19 10:31:50;;;;;;;;;1.00;1.00;;;;;23.77;60.12;101069.53;5079488;27;47847;-58
2022/08/19 10:34:16;;;;;;;;;0.50;0.50;;;;;23.84;60.08;101064.31;5096426;27;45631;-60
2022/08/19 10:36:43;;;;;;;;;4.00;2.25;;;;;23.90;59.51;101054.66;5098079;27;45436;-60
2022/08/19 10:39:09;;;;;;;;;1.25;1.25;;;;;24.03;59.24;101058.66;5097892;27;45234;-60
2022/08/19 10:41:38;;;;;;;;;0.50;0.50;;;;;24.18;59.07;101060.75;5098250;27;45327;-60
2022/08/19 10:44:06;;;;;;;;;1.00;1.00;;;;;24.17;59.38;101048.19;5096642;27;45711;-61
2022/08/19 10:46:34;;;;;;;;;1.80;1.80;;;;;24.34;57.97;101045.38;5078895;27;45430;-61
2022/08/19 10:49:01;;;;;;;;;2.25;2.25;;;;;24.38;57.63;101054.09;5079243;27;45688;-60
2022/08/19 10:54:11;;;;;;;;;1.40;1.40;;;;;24.28;58.08;101050.63;5097391;27;45497;-59
2022/08/19 10:56:52;;;;;;;;;1.75;1.75;;;;;24.21;58.36;101049.56;5097650;27;45259;-62
2022/08/19 10:59:38;;;;;;;;;1.00;1.00;;;;;24.23;58.63;101058.41;5079281;27;45275;-60
2022/08/19 11:02:09;;;;;;;;;1.80;1.80;;;;;24.15;58.60;101053.78;5096885;27;46453;-62
2022/08/19 11:04:36;;;;;;;;;2.00;2.00;;;;;24.08;58.60;101044.56;5096821;27;45509;-63
2022/08/19 11:07:03;;;;;;;;;2.20;1.20;;;;;24.07;58.59;101054.59;5079358;27;45484;-61
2022/08/19 11:09:28;;;;;;;;;2.50;2.50;;;;;24.04;58.87;101048.63;5079421;27;45521;-66
2022/08/19 11:11:56;;;;;;;;;1.00;1.00;;;;;24.05;58.58;101045.75;5097499;27;45374;-63
2022/08/19 11:14:23;;;;;;;;;1.20;0.00;;;;;24.06;59.05;101050.16;5096872;27;45308;-61
2022/08/19 11:16:49;;;;;;;;;1.25;1.25;;;;;24.04;58.97;101044.03;5078591;27;45390;-63
2022/08/19 11:19:18;;;;;;;;;3.50;3.00;;;;;24.12;58.99;101046.81;5097518;27;45453;-58
2022/08/19 11:21:46;;;;;;;;;3.00;2.00;;;;;24.10;58.76;101039.84;5079090;27;46239;-61
2022/08/19 11:24:22;;;;;;;;;1.00;1.00;;;;;24.06;58.07;101046.59;5078750;27;45276;-61
2022/08/19 11:26:50;;;;;;;;;1.00;1.00;;;;;23.99;58.00;101042.84;5093178;27;45269;-59
2022/08/19 11:29:18;;;;;;;;;1.50;1.50;;;;;23.95;59.03;101034.16;5075664;28;45535;-58
2022/08/19 11:31:47;;;;;;;;;2.00;2.00;;;;;23.97;59.23;101040.28;5077140;28;45908;-59
2022/08/19 11:34:17;;;;;;;;;2.00;2.00;;;;;23.96;59.12;101037.72;5077280;27;45214;-58
2022/08/19 11:36:45;;;;;;;;;2.00;2.00;;;;;23.92;59.43;101048.06;5076993;27;45399;-59
2022/08/19 11:39:14;;;;;;;;;3.00;1.50;;;;;23.86;59.24;101046.00;5076762;27;45349;-59
2022/08/19 11:41:39;;;;;;;;;2.00;2.00;;;;;23.81;59.76;101049.19;5076385;27;45989;-58